sensor_id;sensor_type;location;lat;lon;timestamp;P1;durP1;ratioP1;P2;durP2;ratioP2
6614;SDS011;3343;42.896;23.912;2023-02-11T00:00:49;8.17;;;3.87;;
6614;SDS011;3343;42.896;23.912;2023-02-11T00:03:16;5.13;;;3.33;;
6614;SDS011;3343;42.896;23.912;2023-02-11T00:05:43;5.67;;;3.20;;
6614;SDS011;3343;42.896;23.912;2023-02-11T00:08:10;7.20;;;3.17;;
6614;SDS011;3343;42.896;23.912;2023-02-11T00:10:42;6.60;;;2.90;;
6614;SDS011;3343;42.896;23.912;2023-02-11T00:13:10;3.20;;;2.23;;
6614;SDS011;3343;42.896;23.912;2023-02-11T00:15:37;9.57;;;3.93;;
6614;SDS011;3343;42.896;23.912;2023-02-11T00:18:04;4.93;;;3.30;;
6614;SDS011;3343;42.896;23.912;2023-02-11T00:20:31;2.90;;;2.60;;
6614;SDS011;3343;42.896;23.912;2023-02-11T00:22:58;2.73;;;2.00;;
6614;SDS011;3343;42.896;23.912;2023-02-11T00:25:25;4.17;;;2.53;;
6614;SDS011;3343;42.896;23.912;2023-02-11T00:27:53;3.40;;;3.10;;
6614;SDS011;3343;42.896;23.912;2023-02-11T00:30:19;8.83;;;3.70;;
6614;SDS011;3343;42.896;23.912;2023-02-11T00:32:47;3.23;;;2.93;;
6614;SDS011;3343;42.896;23.912;2023-02-11T00:35:14;3.87;;;3.10;;
6614;SDS011;3343;42.896;23.912;2023-02-11T00:37:41;3.87;;;3.37;;
6614;SDS011;3343;42.896;23.912;2023-02-11T00:40:08;7.50;;;3.13;;
6614;SDS011;3343;42.896;23.912;2023-02-11T00:42:36;5.27;;;2.70;;
6614;SDS011;3343;42.896;23.912;2023-02-11T00:45:05;7.13;;;4.77;;
6614;SDS011;3343;42.896;23.912;2023-02-11T00:47:34;8.27;;;3.53;;
6614;SDS011;3343;42.896;23.912;2023-02-11T00:50:01;10.37;;;3.87;;
6614;SDS011;3343;42.896;23.912;2023-02-11T00:52:29;4.03;;;3.27;;
6614;SDS011;3343;42.896;23.912;2023-02-11T00:54:56;6.40;;;3.53;;
6614;SDS011;3343;42.896;23.912;2023-02-11T00:57:23;6.93;;;4.13;;
6614;SDS011;3343;42.896;23.912;2023-02-11T00:59:50;5.83;;;3.23;;
6614;SDS011;3343;42.896;23.912;2023-02-11T01:02:18;3.97;;;2.60;;
6614;SDS011;3343;42.896;23.912;2023-02-11T01:04:44;6.50;;;2.70;;
6614;SDS011;3343;42.896;23.912;2023-02-11T01:07:11;10.10;;;2.90;;
6614;SDS011;3343;42.896;23.912;2023-02-11T01:09:38;4.37;;;3.30;;
6614;SDS011;3343;42.896;23.912;2023-02-11T01:12:05;6.73;;;5.50;;
6614;SDS011;3343;42.896;23.912;2023-02-11T01:14:32;4.70;;;2.77;;
6614;SDS011;3343;42.896;23.912;2023-02-11T01:16:59;4.00;;;2.90;;
6614;SDS011;3343;42.896;23.912;2023-02-11T01:19:27;4.00;;;2.77;;
6614;SDS011;3343;42.896;23.912;2023-02-11T01:21:54;5.00;;;3.33;;
6614;SDS011;3343;42.896;23.912;2023-02-11T01:24:21;3.80;;;2.70;;
6614;SDS011;3343;42.896;23.912;2023-02-11T01:26:47;3.77;;;3.00;;
6614;SDS011;3343;42.896;23.912;2023-02-11T01:29:15;6.00;;;3.37;;
6614;SDS011;3343;42.896;23.912;2023-02-11T01:31:42;4.87;;;3.50;;
6614;SDS011;3343;42.896;23.912;2023-02-11T01:34:09;8.37;;;4.97;;
6614;SDS011;3343;42.896;23.912;2023-02-11T01:36:37;4.57;;;3.07;;
6614;SDS011;3343;42.896;23.912;2023-02-11T01:39:04;22.07;;;4.10;;
6614;SDS011;3343;42.896;23.912;2023-02-11T01:41:32;12.30;;;3.60;;
6614;SDS011;3343;42.896;23.912;2023-02-11T01:46:48;6.53;;;3.03;;
6614;SDS011;3343;42.896;23.912;2023-02-11T01:49:17;4.07;;;2.90;;
6614;SDS011;3343;42.896;23.912;2023-02-11T01:51:49;4.00;;;3.60;;
6614;SDS011;3343;42.896;23.912;2023-02-11T01:54:21;5.33;;;3.60;;
6614;SDS011;3343;42.896;23.912;2023-02-11T01:57:09;4.13;;;3.47;;
6614;SDS011;3343;42.896;23.912;2023-02-11T01:59:49;6.57;;;3.03;;
6614;SDS011;3343;42.896;23.912;2023-02-11T02:02:31;8.00;;;3.20;;
6614;SDS011;3343;42.896;23.912;2023-02-11T02:05:06;6.40;;;4.50;;
6614;SDS011;3343;42.896;23.912;2023-02-11T02:07:43;5.90;;;3.07;;
6614;SDS011;3343;42.896;23.912;2023-02-11T02:10:16;5.43;;;3.83;;
6614;SDS011;3343;42.896;23.912;2023-02-11T02:12:46;3.70;;;3.03;;
6614;SDS011;3343;42.896;23.912;2023-02-11T02:15:19;3.77;;;2.33;;
6614;SDS011;3343;42.896;23.912;2023-02-11T02:17:53;6.23;;;2.80;;
6614;SDS011;3343;42.896;23.912;2023-02-11T02:27:11;2.80;;;2.50;;
6614;SDS011;3343;42.896;23.912;2023-02-11T02:32:51;2.50;;;2.17;;
6614;SDS011;3343;42.896;23.912;2023-02-11T02:35:28;4.67;;;2.93;;
6614;SDS011;3343;42.896;23.912;2023-02-11T02:38:06;3.27;;;2.60;;
6614;SDS011;3343;42.896;23.912;2023-02-11T02:40:37;13.67;;;2.97;;
6614;SDS011;3343;42.896;23.912;2023-02-11T02:43:10;4.60;;;2.20;;
6614;SDS011;3343;42.896;23.912;2023-02-11T02:45:38;5.07;;;2.37;;
6614;SDS011;3343;42.896;23.912;2023-02-11T02:48:20;6.07;;;4.73;;
6614;SDS011;3343;42.896;23.912;2023-02-11T02:50:49;15.20;;;5.60;;
6614;SDS011;3343;42.896;23.912;2023-02-11T02:53:24;9.30;;;3.47;;
6614;SDS011;3343;42.896;23.912;2023-02-11T02:56:05;19.77;;;3.70;;
6614;SDS011;3343;42.896;23.912;2023-02-11T02:58:43;7.27;;;3.87;;
6614;SDS011;3343;42.896;23.912;2023-02-11T03:01:25;4.67;;;2.20;;
6614;SDS011;3343;42.896;23.912;2023-02-11T03:04:02;3.13;;;2.70;;
6614;SDS011;3343;42.896;23.912;2023-02-11T03:06:38;8.03;;;3.73;;
6614;SDS011;3343;42.896;23.912;2023-02-11T03:09:14;2.33;;;1.97;;
6614;SDS011;3343;42.896;23.912;2023-02-11T03:11:46;5.67;;;2.90;;
6614;SDS011;3343;42.896;23.912;2023-02-11T03:14:14;3.27;;;2.93;;
6614;SDS011;3343;42.896;23.912;2023-02-11T03:16:43;4.83;;;2.97;;
6614;SDS011;3343;42.896;23.912;2023-02-11T03:19:16;6.70;;;3.23;;
6614;SDS011;3343;42.896;23.912;2023-02-11T03:21:46;2.90;;;2.60;;
6614;SDS011;3343;42.896;23.912;2023-02-11T03:24:18;11.80;;;3.57;;
6614;SDS011;3343;42.896;23.912;2023-02-11T03:26:50;8.33;;;3.97;;
6614;SDS011;3343;42.896;23.912;2023-02-11T03:29:21;3.23;;;2.60;;
6614;SDS011;3343;42.896;23.912;2023-02-11T03:31:58;5.27;;;3.07;;
6614;SDS011;3343;42.896;23.912;2023-02-11T03:34:35;6.97;;;3.60;;
6614;SDS011;3343;42.896;23.912;2023-02-11T03:37:08;3.73;;;2.40;;
6614;SDS011;3343;42.896;23.912;2023-02-11T03:39:39;5.67;;;2.37;;
6614;SDS011;3343;42.896;23.912;2023-02-11T03:42:11;6.67;;;3.47;;
6614;SDS011;3343;42.896;23.912;2023-02-11T03:44:41;7.97;;;3.23;;
6614;SDS011;3343;42.896;23.912;2023-02-11T03:47:12;2.73;;;2.53;;
6614;SDS011;3343;42.896;23.912;2023-02-11T03:49:43;2.93;;;2.43;;
6614;SDS011;3343;42.896;23.912;2023-02-11T03:52:13;3.23;;;2.10;;
6614;SDS011;3343;42.896;23.912;2023-02-11T03:54:42;2.40;;;2.20;;
6614;SDS011;3343;42.896;23.912;2023-02-11T03:57:11;4.67;;;2.30;;
6614;SDS011;3343;42.896;23.912;2023-02-11T03:59:52;4.30;;;2.63;;
6614;SDS011;3343;42.896;23.912;2023-02-11T04:02:21;2.47;;;2.27;;
6614;SDS011;3343;42.896;23.912;2023-02-11T04:04:51;6.43;;;3.50;;
6614;SDS011;3343;42.896;23.912;2023-02-11T04:07:18;11.93;;;4.00;;
6614;SDS011;3343;42.896;23.912;2023-02-11T04:09:45;5.10;;;3.67;;
6614;SDS011;3343;42.896;23.912;2023-02-11T04:12:12;12.17;;;4.43;;
6614;SDS011;3343;42.896;23.912;2023-02-11T04:14:39;7.60;;;4.93;;
6614;SDS011;3343;42.896;23.912;2023-02-11T04:17:06;10.00;;;5.63;;
6614;SDS011;3343;42.896;23.912;2023-02-11T04:19:33;5.73;;;4.70;;
6614;SDS011;3343;42.896;23.912;2023-02-11T04:22:01;4.43;;;2.23;;
6614;SDS011;3343;42.896;23.912;2023-02-11T04:24:28;8.47;;;4.33;;
6614;SDS011;3343;42.896;23.912;2023-02-11T04:26:55;2.30;;;1.73;;
6614;SDS011;3343;42.896;23.912;2023-02-11T04:29:22;11.73;;;7.03;;
6614;SDS011;3343;42.896;23.912;2023-02-11T04:31:49;11.40;;;7.10;;
6614;SDS011;3343;42.896;23.912;2023-02-11T04:34:16;3.77;;;2.97;;
6614;SDS011;3343;42.896;23.912;2023-02-11T04:36:43;6.00;;;3.43;;
6614;SDS011;3343;42.896;23.912;2023-02-11T04:39:11;3.43;;;3.00;;
6614;SDS011;3343;42.896;23.912;2023-02-11T04:41:38;3.27;;;2.83;;
6614;SDS011;3343;42.896;23.912;2023-02-11T04:44:05;5.73;;;3.13;;
6614;SDS011;3343;42.896;23.912;2023-02-11T04:46:32;5.70;;;3.87;;
6614;SDS011;3343;42.896;23.912;2023-02-11T04:48:59;7.40;;;4.10;;
6614;SDS011;3343;42.896;23.912;2023-02-11T04:51:26;4.33;;;3.10;;
6614;SDS011;3343;42.896;23.912;2023-02-11T04:53:53;5.10;;;2.97;;
6614;SDS011;3343;42.896;23.912;2023-02-11T04:56:21;2.97;;;2.67;;
6614;SDS011;3343;42.896;23.912;2023-02-11T04:58:48;2.30;;;2.10;;
6614;SDS011;3343;42.896;23.912;2023-02-11T05:01:15;3.80;;;2.13;;
6614;SDS011;3343;42.896;23.912;2023-02-11T05:03:42;3.60;;;3.07;;
6614;SDS011;3343;42.896;23.912;2023-02-11T05:06:09;3.90;;;3.30;;
6614;SDS011;3343;42.896;23.912;2023-02-11T05:08:37;2.27;;;1.83;;
6614;SDS011;3343;42.896;23.912;2023-02-11T05:11:04;2.63;;;1.83;;
6614;SDS011;3343;42.896;23.912;2023-02-11T05:13:33;3.10;;;2.17;;
6614;SDS011;3343;42.896;23.912;2023-02-11T05:16:00;3.53;;;2.30;;
6614;SDS011;3343;42.896;23.912;2023-02-11T05:18:27;4.13;;;2.13;;
6614;SDS011;3343;42.896;23.912;2023-02-11T05:20:53;1.70;;;1.60;;
6614;SDS011;3343;42.896;23.912;2023-02-11T05:23:20;4.30;;;2.47;;
6614;SDS011;3343;42.896;23.912;2023-02-11T05:25:47;3.37;;;2.90;;
6614;SDS011;3343;42.896;23.912;2023-02-11T05:28:14;3.00;;;2.40;;
6614;SDS011;3343;42.896;23.912;2023-02-11T05:30:42;8.83;;;2.70;;
6614;SDS011;3343;42.896;23.912;2023-02-11T05:33:09;5.83;;;2.80;;
6614;SDS011;3343;42.896;23.912;2023-02-11T05:35:36;3.10;;;2.23;;
6614;SDS011;3343;42.896;23.912;2023-02-11T05:38:03;3.20;;;2.47;;
6614;SDS011;3343;42.896;23.912;2023-02-11T05:40:30;7.17;;;5.50;;
6614;SDS011;3343;42.896;23.912;2023-02-11T05:42:57;2.13;;;2.03;;
6614;SDS011;3343;42.896;23.912;2023-02-11T05:45:24;6.20;;;3.20;;
6614;SDS011;3343;42.896;23.912;2023-02-11T05:47:52;3.53;;;2.63;;
6614;SDS011;3343;42.896;23.912;2023-02-11T05:50:19;7.73;;;4.63;;
6614;SDS011;3343;42.896;23.912;2023-02-11T05:52:46;11.17;;;6.50;;
6614;SDS011;3343;42.896;23.912;2023-02-11T05:55:13;10.77;;;5.10;;
6614;SDS011;3343;42.896;23.912;2023-02-11T05:57:39;4.90;;;4.00;;
6614;SDS011;3343;42.896;23.912;2023-02-11T06:00:07;7.57;;;4.60;;
6614;SDS011;3343;42.896;23.912;2023-02-11T06:02:35;5.60;;;3.60;;
6614;SDS011;3343;42.896;23.912;2023-02-11T06:05:03;13.47;;;6.67;;
6614;SDS011;3343;42.896;23.912;2023-02-11T06:07:30;12.13;;;3.60;;
6614;SDS011;3343;42.896;23.912;2023-02-11T06:09:57;5.90;;;3.20;;
6614;SDS011;3343;42.896;23.912;2023-02-11T06:12:24;5.93;;;3.40;;
6614;SDS011;3343;42.896;23.912;2023-02-11T06:14:51;9.07;;;3.40;;
6614;SDS011;3343;42.896;23.912;2023-02-11T06:17:18;8.33;;;3.60;;
6614;SDS011;3343;42.896;23.912;2023-02-11T06:19:45;9.20;;;4.33;;
6614;SDS011;3343;42.896;23.912;2023-02-11T06:22:13;9.73;;;5.77;;
6614;SDS011;3343;42.896;23.912;2023-02-11T06:24:40;14.80;;;5.53;;
6614;SDS011;3343;42.896;23.912;2023-02-11T06:27:07;13.80;;;4.80;;
6614;SDS011;3343;42.896;23.912;2023-02-11T06:29:34;8.17;;;5.07;;
6614;SDS011;3343;42.896;23.912;2023-02-11T06:32:02;13.63;;;6.73;;
6614;SDS011;3343;42.896;23.912;2023-02-11T06:34:29;13.10;;;7.90;;
6614;SDS011;3343;42.896;23.912;2023-02-11T06:36:56;24.87;;;12.90;;
6614;SDS011;3343;42.896;23.912;2023-02-11T06:39:24;59.93;;;27.10;;
6614;SDS011;3343;42.896;23.912;2023-02-11T06:41:51;55.17;;;24.43;;
6614;SDS011;3343;42.896;23.912;2023-02-11T06:44:18;48.03;;;22.87;;
6614;SDS011;3343;42.896;23.912;2023-02-11T06:46:45;59.77;;;28.27;;
6614;SDS011;3343;42.896;23.912;2023-02-11T06:49:11;56.10;;;29.07;;
6614;SDS011;3343;42.896;23.912;2023-02-11T06:51:39;75.03;;;34.40;;
6614;SDS011;3343;42.896;23.912;2023-02-11T06:54:05;87.43;;;34.70;;
6614;SDS011;3343;42.896;23.912;2023-02-11T06:56:34;53.50;;;26.80;;
6614;SDS011;3343;42.896;23.912;2023-02-11T06:59:01;59.23;;;29.17;;
6614;SDS011;3343;42.896;23.912;2023-02-11T07:01:27;42.80;;;21.27;;
6614;SDS011;3343;42.896;23.912;2023-02-11T07:03:54;37.20;;;16.83;;
6614;SDS011;3343;42.896;23.912;2023-02-11T07:06:22;50.20;;;23.37;;
6614;SDS011;3343;42.896;23.912;2023-02-11T07:08:52;45.53;;;21.40;;
6614;SDS011;3343;42.896;23.912;2023-02-11T07:11:19;39.13;;;18.80;;
6614;SDS011;3343;42.896;23.912;2023-02-11T07:13:50;44.23;;;19.50;;
6614;SDS011;3343;42.896;23.912;2023-02-11T07:16:18;39.40;;;16.93;;
6614;SDS011;3343;42.896;23.912;2023-02-11T07:18:47;43.10;;;18.40;;
6614;SDS011;3343;42.896;23.912;2023-02-11T07:21:15;68.87;;;28.47;;
6614;SDS011;3343;42.896;23.912;2023-02-11T07:23:44;68.27;;;27.07;;
6614;SDS011;3343;42.896;23.912;2023-02-11T07:26:14;84.27;;;36.83;;
6614;SDS011;3343;42.896;23.912;2023-02-11T07:28:43;90.80;;;38.30;;
6614;SDS011;3343;42.896;23.912;2023-02-11T07:31:12;64.93;;;31.37;;
6614;SDS011;3343;42.896;23.912;2023-02-11T07:33:40;74.80;;;31.73;;
6614;SDS011;3343;42.896;23.912;2023-02-11T07:36:10;67.17;;;32.07;;
6614;SDS011;3343;42.896;23.912;2023-02-11T07:38:38;77.50;;;34.10;;
6614;SDS011;3343;42.896;23.912;2023-02-11T07:41:05;71.47;;;32.70;;
6614;SDS011;3343;42.896;23.912;2023-02-11T07:43:34;70.50;;;33.50;;
6614;SDS011;3343;42.896;23.912;2023-02-11T07:46:02;55.10;;;26.83;;
6614;SDS011;3343;42.896;23.912;2023-02-11T07:48:31;55.13;;;26.13;;
6614;SDS011;3343;42.896;23.912;2023-02-11T07:51:03;72.40;;;30.43;;
6614;SDS011;3343;42.896;23.912;2023-02-11T07:53:31;51.87;;;22.80;;
6614;SDS011;3343;42.896;23.912;2023-02-11T07:55:58;49.93;;;21.47;;
6614;SDS011;3343;42.896;23.912;2023-02-11T07:58:24;46.60;;;19.53;;
6614;SDS011;3343;42.896;23.912;2023-02-11T08:00:51;52.73;;;23.80;;
6614;SDS011;3343;42.896;23.912;2023-02-11T08:03:18;49.90;;;25.10;;
6614;SDS011;3343;42.896;23.912;2023-02-11T08:05:46;50.13;;;22.00;;
6614;SDS011;3343;42.896;23.912;2023-02-11T08:08:13;45.97;;;21.73;;
6614;SDS011;3343;42.896;23.912;2023-02-11T08:10:40;46.90;;;22.57;;
6614;SDS011;3343;42.896;23.912;2023-02-11T08:13:07;52.57;;;22.70;;
6614;SDS011;3343;42.896;23.912;2023-02-11T08:15:34;34.07;;;19.23;;
6614;SDS011;3343;42.896;23.912;2023-02-11T08:18:00;30.90;;;15.83;;
6614;SDS011;3343;42.896;23.912;2023-02-11T08:20:27;46.30;;;23.67;;
6614;SDS011;3343;42.896;23.912;2023-02-11T08:22:56;56.20;;;24.73;;
6614;SDS011;3343;42.896;23.912;2023-02-11T08:25:23;43.87;;;22.07;;
6614;SDS011;3343;42.896;23.912;2023-02-11T08:27:50;31.57;;;16.00;;
6614;SDS011;3343;42.896;23.912;2023-02-11T08:30:17;20.97;;;10.67;;
6614;SDS011;3343;42.896;23.912;2023-02-11T08:32:43;16.90;;;8.90;;
6614;SDS011;3343;42.896;23.912;2023-02-11T08:35:10;11.47;;;6.20;;
6614;SDS011;3343;42.896;23.912;2023-02-11T08:37:37;13.37;;;6.13;;
6614;SDS011;3343;42.896;23.912;2023-02-11T08:40:06;10.53;;;5.60;;
6614;SDS011;3343;42.896;23.912;2023-02-11T08:42:33;8.67;;;5.07;;
6614;SDS011;3343;42.896;23.912;2023-02-11T08:45:00;8.20;;;4.60;;
6614;SDS011;3343;42.896;23.912;2023-02-11T08:47:27;10.50;;;4.33;;
6614;SDS011;3343;42.896;23.912;2023-02-11T08:49:54;8.23;;;4.07;;
6614;SDS011;3343;42.896;23.912;2023-02-11T08:52:21;13.00;;;5.87;;
6614;SDS011;3343;42.896;23.912;2023-02-11T08:54:48;14.77;;;6.90;;
6614;SDS011;3343;42.896;23.912;2023-02-11T08:57:16;16.03;;;7.63;;
6614;SDS011;3343;42.896;23.912;2023-02-11T08:59:43;19.70;;;8.17;;
6614;SDS011;3343;42.896;23.912;2023-02-11T09:02:10;21.13;;;8.87;;
6614;SDS011;3343;42.896;23.912;2023-02-11T09:04:38;13.60;;;8.33;;
6614;SDS011;3343;42.896;23.912;2023-02-11T09:07:04;17.23;;;8.77;;
6614;SDS011;3343;42.896;23.912;2023-02-11T09:09:31;17.50;;;9.40;;
6614;SDS011;3343;42.896;23.912;2023-02-11T09:11:58;16.47;;;8.37;;
6614;SDS011;3343;42.896;23.912;2023-02-11T09:14:27;21.50;;;9.53;;
6614;SDS011;3343;42.896;23.912;2023-02-11T09:16:54;16.23;;;8.00;;
6614;SDS011;3343;42.896;23.912;2023-02-11T09:19:21;17.67;;;8.23;;
6614;SDS011;3343;42.896;23.912;2023-02-11T09:21:48;18.67;;;8.93;;
6614;SDS011;3343;42.896;23.912;2023-02-11T09:24:15;16.60;;;8.53;;
6614;SDS011;3343;42.896;23.912;2023-02-11T09:26:42;13.87;;;9.13;;
6614;SDS011;3343;42.896;23.912;2023-02-11T09:29:09;18.23;;;9.10;;
6614;SDS011;3343;42.896;23.912;2023-02-11T09:31:37;20.67;;;9.50;;
6614;SDS011;3343;42.896;23.912;2023-02-11T09:34:04;22.17;;;10.60;;
6614;SDS011;3343;42.896;23.912;2023-02-11T09:36:32;20.83;;;9.23;;
6614;SDS011;3343;42.896;23.912;2023-02-11T09:39:01;21.27;;;10.80;;
6614;SDS011;3343;42.896;23.912;2023-02-11T09:41:34;18.17;;;10.60;;
6614;SDS011;3343;42.896;23.912;2023-02-11T09:44:15;22.77;;;11.93;;
6614;SDS011;3343;42.896;23.912;2023-02-11T09:46:46;20.60;;;10.63;;
6614;SDS011;3343;42.896;23.912;2023-02-11T09:49:19;21.03;;;11.00;;
6614;SDS011;3343;42.896;23.912;2023-02-11T09:51:51;19.93;;;11.17;;
6614;SDS011;3343;42.896;23.912;2023-02-11T09:54:25;21.50;;;9.40;;
6614;SDS011;3343;42.896;23.912;2023-02-11T09:56:55;16.23;;;9.00;;
6614;SDS011;3343;42.896;23.912;2023-02-11T09:59:22;14.37;;;8.07;;
6614;SDS011;3343;42.896;23.912;2023-02-11T10:01:52;15.33;;;7.60;;
6614;SDS011;3343;42.896;23.912;2023-02-11T10:04:27;13.47;;;7.13;;
6614;SDS011;3343;42.896;23.912;2023-02-11T10:07:12;13.03;;;6.63;;
6614;SDS011;3343;42.896;23.912;2023-02-11T10:09:55;11.40;;;5.80;;
6614;SDS011;3343;42.896;23.912;2023-02-11T10:12:32;14.43;;;7.30;;
6614;SDS011;3343;42.896;23.912;2023-02-11T10:15:13;9.70;;;5.87;;
6614;SDS011;3343;42.896;23.912;2023-02-11T10:17:53;8.43;;;5.13;;
6614;SDS011;3343;42.896;23.912;2023-02-11T10:20:33;9.20;;;4.83;;
6614;SDS011;3343;42.896;23.912;2023-02-11T10:23:07;9.90;;;5.10;;
6614;SDS011;3343;42.896;23.912;2023-02-11T10:25:39;10.23;;;5.47;;
6614;SDS011;3343;42.896;23.912;2023-02-11T10:28:10;10.87;;;4.97;;
6614;SDS011;3343;42.896;23.912;2023-02-11T10:30:41;12.17;;;5.50;;
6614;SDS011;3343;42.896;23.912;2023-02-11T10:33:14;10.43;;;5.43;;
6614;SDS011;3343;42.896;23.912;2023-02-11T10:35:48;9.33;;;4.63;;
6614;SDS011;3343;42.896;23.912;2023-02-11T10:38:15;8.43;;;5.27;;
6614;SDS011;3343;42.896;23.912;2023-02-11T10:40:43;18.57;;;6.13;;
6614;SDS011;3343;42.896;23.912;2023-02-11T10:43:11;11.93;;;5.40;;
6614;SDS011;3343;42.896;23.912;2023-02-11T10:45:41;11.23;;;5.23;;
6614;SDS011;3343;42.896;23.912;2023-02-11T10:51:07;9.53;;;5.37;;
6614;SDS011;3343;42.896;23.912;2023-02-11T10:53:40;9.93;;;5.23;;
6614;SDS011;3343;42.896;23.912;2023-02-11T10:56:09;13.93;;;5.93;;
6614;SDS011;3343;42.896;23.912;2023-02-11T10:58:39;9.50;;;5.97;;
6614;SDS011;3343;42.896;23.912;2023-02-11T11:01:10;8.77;;;5.67;;
6614;SDS011;3343;42.896;23.912;2023-02-11T11:03:48;9.97;;;5.27;;
6614;SDS011;3343;42.896;23.912;2023-02-11T11:06:16;10.27;;;5.23;;
6614;SDS011;3343;42.896;23.912;2023-02-11T11:08:55;13.93;;;5.47;;
6614;SDS011;3343;42.896;23.912;2023-02-11T11:11:22;10.53;;;5.73;;
6614;SDS011;3343;42.896;23.912;2023-02-11T11:13:54;13.50;;;6.20;;
6614;SDS011;3343;42.896;23.912;2023-02-11T11:16:23;11.17;;;5.30;;
6614;SDS011;3343;42.896;23.912;2023-02-11T11:18:53;9.27;;;5.10;;
6614;SDS011;3343;42.896;23.912;2023-02-11T11:21:41;8.83;;;4.87;;
6614;SDS011;3343;42.896;23.912;2023-02-11T11:24:14;8.30;;;4.43;;
6614;SDS011;3343;42.896;23.912;2023-02-11T11:26:44;11.97;;;4.70;;
6614;SDS011;3343;42.896;23.912;2023-02-11T11:29:14;8.33;;;4.47;;
6614;SDS011;3343;42.896;23.912;2023-02-11T11:31:48;6.27;;;4.10;;
6614;SDS011;3343;42.896;23.912;2023-02-11T11:34:22;9.37;;;5.30;;
6614;SDS011;3343;42.896;23.912;2023-02-11T11:36:53;6.83;;;4.30;;
6614;SDS011;3343;42.896;23.912;2023-02-11T11:39:22;9.13;;;4.60;;
6614;SDS011;3343;42.896;23.912;2023-02-11T11:41:51;5.90;;;3.93;;
6614;SDS011;3343;42.896;23.912;2023-02-11T11:44:24;8.00;;;4.97;;
6614;SDS011;3343;42.896;23.912;2023-02-11T11:47:04;6.90;;;4.23;;
6614;SDS011;3343;42.896;23.912;2023-02-11T11:49:43;9.43;;;4.67;;
6614;SDS011;3343;42.896;23.912;2023-02-11T11:52:16;7.80;;;4.03;;
6614;SDS011;3343;42.896;23.912;2023-02-11T11:54:54;6.20;;;3.60;;
6614;SDS011;3343;42.896;23.912;2023-02-11T11:57:27;7.93;;;4.20;;
6614;SDS011;3343;42.896;23.912;2023-02-11T11:59:56;6.00;;;3.67;;
6614;SDS011;3343;42.896;23.912;2023-02-11T12:05:43;8.80;;;4.33;;
6614;SDS011;3343;42.896;23.912;2023-02-11T12:08:18;7.60;;;3.80;;
6614;SDS011;3343;42.896;23.912;2023-02-11T12:10:52;5.57;;;3.67;;
6614;SDS011;3343;42.896;23.912;2023-02-11T12:13:38;8.50;;;3.87;;
6614;SDS011;3343;42.896;23.912;2023-02-11T12:16:16;7.33;;;3.67;;
6614;SDS011;3343;42.896;23.912;2023-02-11T12:19:11;9.03;;;3.23;;
6614;SDS011;3343;42.896;23.912;2023-02-11T12:22:01;5.53;;;3.20;;
6614;SDS011;3343;42.896;23.912;2023-02-11T12:24:48;5.23;;;3.33;;
6614;SDS011;3343;42.896;23.912;2023-02-11T12:27:30;6.07;;;3.13;;
6614;SDS011;3343;42.896;23.912;2023-02-11T12:30:15;5.40;;;3.40;;
6614;SDS011;3343;42.896;23.912;2023-02-11T12:32:48;8.50;;;3.70;;
6614;SDS011;3343;42.896;23.912;2023-02-11T12:35:30;6.77;;;3.60;;
6614;SDS011;3343;42.896;23.912;2023-02-11T12:38:14;7.00;;;2.83;;
6614;SDS011;3343;42.896;23.912;2023-02-11T12:40:56;3.80;;;2.53;;
6614;SDS011;3343;42.896;23.912;2023-02-11T12:43:35;6.30;;;3.47;;
6614;SDS011;3343;42.896;23.912;2023-02-11T12:46:07;6.80;;;3.40;;
6614;SDS011;3343;42.896;23.912;2023-02-11T12:51:50;5.33;;;2.60;;
6614;SDS011;3343;42.896;23.912;2023-02-11T12:54:30;12.30;;;2.77;;
6614;SDS011;3343;42.896;23.912;2023-02-11T12:57:06;4.03;;;2.23;;
6614;SDS011;3343;42.896;23.912;2023-02-11T12:59:44;3.30;;;2.10;;
6614;SDS011;3343;42.896;23.912;2023-02-11T13:02:22;9.13;;;2.13;;
6614;SDS011;3343;42.896;23.912;2023-02-11T13:04:55;6.17;;;2.23;;
6614;SDS011;3343;42.896;23.912;2023-02-11T13:07:27;2.97;;;2.27;;
6614;SDS011;3343;42.896;23.912;2023-02-11T13:10:00;2.73;;;2.27;;
6614;SDS011;3343;42.896;23.912;2023-02-11T13:12:32;4.80;;;2.40;;
6614;SDS011;3343;42.896;23.912;2023-02-11T13:15:19;4.80;;;3.13;;
6614;SDS011;3343;42.896;23.912;2023-02-11T13:17:51;7.33;;;4.50;;
6614;SDS011;3343;42.896;23.912;2023-02-11T13:20:27;6.47;;;3.30;;
6614;SDS011;3343;42.896;23.912;2023-02-11T13:23:07;4.37;;;2.87;;
6614;SDS011;3343;42.896;23.912;2023-02-11T13:25:45;3.97;;;2.63;;
6614;SDS011;3343;42.896;23.912;2023-02-11T13:28:22;5.73;;;2.60;;
6614;SDS011;3343;42.896;23.912;2023-02-11T13:31:00;5.70;;;3.27;;
6614;SDS011;3343;42.896;23.912;2023-02-11T13:33:34;6.67;;;3.43;;
6614;SDS011;3343;42.896;23.912;2023-02-11T13:36:11;5.87;;;3.80;;
6614;SDS011;3343;42.896;23.912;2023-02-11T13:38:40;6.10;;;3.67;;
6614;SDS011;3343;42.896;23.912;2023-02-11T13:41:21;5.47;;;3.40;;
6614;SDS011;3343;42.896;23.912;2023-02-11T13:43:58;9.47;;;4.13;;
6614;SDS011;3343;42.896;23.912;2023-02-11T13:46:28;7.73;;;3.90;;
6614;SDS011;3343;42.896;23.912;2023-02-11T13:49:18;6.23;;;3.87;;
6614;SDS011;3343;42.896;23.912;2023-02-11T13:51:48;6.90;;;4.23;;
6614;SDS011;3343;42.896;23.912;2023-02-11T13:54:20;8.53;;;5.03;;
6614;SDS011;3343;42.896;23.912;2023-02-11T13:59:48;6.67;;;3.33;;
6614;SDS011;3343;42.896;23.912;2023-02-11T14:02:21;7.27;;;4.10;;
6614;SDS011;3343;42.896;23.912;2023-02-11T14:08:14;6.10;;;3.07;;
6614;SDS011;3343;42.896;23.912;2023-02-11T14:11:04;3.87;;;2.67;;
6614;SDS011;3343;42.896;23.912;2023-02-11T14:16:50;6.17;;;2.57;;
6614;SDS011;3343;42.896;23.912;2023-02-11T14:19:46;4.90;;;2.70;;
6614;SDS011;3343;42.896;23.912;2023-02-11T14:22:14;4.93;;;2.80;;
6614;SDS011;3343;42.896;23.912;2023-02-11T14:24:45;4.97;;;2.57;;
6614;SDS011;3343;42.896;23.912;2023-02-11T14:27:17;5.97;;;3.33;;
6614;SDS011;3343;42.896;23.912;2023-02-11T14:29:52;5.40;;;2.70;;
6614;SDS011;3343;42.896;23.912;2023-02-11T14:32:33;4.37;;;2.73;;
6614;SDS011;3343;42.896;23.912;2023-02-11T14:35:08;3.00;;;1.83;;
6614;SDS011;3343;42.896;23.912;2023-02-11T14:37:44;4.17;;;2.33;;
6614;SDS011;3343;42.896;23.912;2023-02-11T14:40:22;5.30;;;2.70;;
6614;SDS011;3343;42.896;23.912;2023-02-11T14:42:54;3.83;;;2.40;;
6614;SDS011;3343;42.896;23.912;2023-02-11T14:45:26;4.40;;;2.40;;
6614;SDS011;3343;42.896;23.912;2023-02-11T14:47:57;3.43;;;2.17;;
6614;SDS011;3343;42.896;23.912;2023-02-11T14:50:31;3.37;;;2.40;;
6614;SDS011;3343;42.896;23.912;2023-02-11T14:53:00;3.37;;;2.20;;
6614;SDS011;3343;42.896;23.912;2023-02-11T14:55:30;6.53;;;2.67;;
6614;SDS011;3343;42.896;23.912;2023-02-11T14:58:12;5.20;;;2.90;;
6614;SDS011;3343;42.896;23.912;2023-02-11T15:00:50;5.03;;;2.53;;
6614;SDS011;3343;42.896;23.912;2023-02-11T15:03:30;4.30;;;2.63;;
6614;SDS011;3343;42.896;23.912;2023-02-11T15:06:00;5.80;;;3.23;;
6614;SDS011;3343;42.896;23.912;2023-02-11T15:08:28;3.63;;;2.47;;
6614;SDS011;3343;42.896;23.912;2023-02-11T15:10:56;2.57;;;2.20;;
6614;SDS011;3343;42.896;23.912;2023-02-11T15:13:24;3.73;;;2.30;;
6614;SDS011;3343;42.896;23.912;2023-02-11T15:15:59;5.17;;;2.60;;
6614;SDS011;3343;42.896;23.912;2023-02-11T15:18:33;2.53;;;1.87;;
6614;SDS011;3343;42.896;23.912;2023-02-11T15:21:03;2.20;;;1.97;;
6614;SDS011;3343;42.896;23.912;2023-02-11T15:23:30;3.47;;;2.37;;
6614;SDS011;3343;42.896;23.912;2023-02-11T15:25:58;7.80;;;3.10;;
6614;SDS011;3343;42.896;23.912;2023-02-11T15:28:29;2.83;;;2.13;;
6614;SDS011;3343;42.896;23.912;2023-02-11T15:31:00;4.87;;;2.30;;
6614;SDS011;3343;42.896;23.912;2023-02-11T15:33:29;4.43;;;2.57;;
6614;SDS011;3343;42.896;23.912;2023-02-11T15:35:57;2.97;;;2.37;;
6614;SDS011;3343;42.896;23.912;2023-02-11T15:38:24;3.23;;;2.00;;
6614;SDS011;3343;42.896;23.912;2023-02-11T15:40:53;3.70;;;2.33;;
6614;SDS011;3343;42.896;23.912;2023-02-11T15:43:22;3.77;;;2.40;;
6614;SDS011;3343;42.896;23.912;2023-02-11T15:45:53;2.03;;;1.83;;
6614;SDS011;3343;42.896;23.912;2023-02-11T15:48:28;3.03;;;2.50;;